D/T METAR WX W/DIR W/SPE G/SPE TEMP DEWP
8/12/19 00:50 EGPU 080050Z AUTO 28024G38KT 250V310 9999 BKN029/// 09/05 Q0982 W (280°) 27.6mph 43.7mph 9°C 5°C
8/12/19 00:20 EGPU 080020Z AUTO 28025G37KT 240V310 9000 BKN024/// 09/06 Q0982 RERA W (280°) 28.8mph 42.6mph 9°C 6°C
7/12/19 23:50 EGPU 072350Z AUTO 27025G35KT 240V310 8000 SCT021/// 09/08 Q0981 RERA W (270°) 28.8mph 40.3mph 9°C 8°C
7/12/19 23:20 EGPU 072320Z AUTO 26021KT 9000 -RA BKN048/// 10/08 Q0981 -RA W (260°) 24.2mph 10°C 8°C
7/12/19 22:50 EGPU 072250Z AUTO 26026G37KT 230V290 7000 -RA FEW006/// BKN045/// 10/08 Q0980 -RA W (260°) 29.9mph 42.6mph 10°C 8°C
7/12/19 22:20 EGPU 072220Z AUTO 27030KT 3800 RA BKN004/// SCT029/// 10/09 Q0980 RA W (270°) 34.5mph 10°C 9°C
7/12/19 21:50 EGPU 072150Z AUTO 23026G36KT 190V260 3000 -RA OVC004/// 11/11 Q0980 -RA SW (230°) 29.9mph 41.4mph 11°C 11°C
7/12/19 21:20 EGPU 072120Z AUTO 22026KT 190V250 3400 RA OVC005/// 11/11 Q0981 RA SW (220°) 29.9mph 11°C 11°C
7/12/19 20:50 EGPU 072050Z AUTO 22028G38KT 190V250 3600 -RA OVC006/// 11/11 Q0982 -RA SW (220°) 32.2mph 43.7mph 11°C 11°C
7/12/19 20:20 EGPU 072020Z AUTO 22027G37KT 180V250 5000 RA BKN005/// BKN012/// 11/11 Q0983 RA SW (220°) 31.1mph 42.6mph 11°C 11°C
7/12/19 19:50 EGPU 071950Z AUTO 21026G37KT 180V250 2800 RA BKN005/// BKN012/// 11/10 Q0984 RA SSW (210°) 29.9mph 42.6mph 11°C 10°C
7/12/19 19:20 EGPU 071920Z AUTO 21023G34KT 180V250 3400 RA BKN006/// BKN013/// 11/10 Q0985 RA SSW (210°) 26.5mph 39.1mph 11°C 10°C
7/12/19 18:50 EGPU 071850Z AUTO 20025KT 3600 RA BKN006/// BKN014/// 11/10 Q0986 RA SSW (200°) 28.8mph 11°C 10°C
7/12/19 18:20 EGPU 071820Z AUTO 20023KT 170V230 3700 RA BKN006/// BKN013/// 11/10 Q0987 RA SSW (200°) 26.5mph 11°C 10°C
7/12/19 17:50 EGPU 071750Z AUTO 21025KT 4000 RA BKN007/// 11/10 Q0988 RA SSW (210°) 28.8mph 11°C 10°C
7/12/19 17:20 EGPU 071720Z AUTO 21026KT 180V240 5000 RA BKN007/// 11/10 Q0989 RA SSW (210°) 29.9mph 11°C 10°C
7/12/19 16:50 EGPU 071650Z AUTO 22027G38KT 180V250 4300 RA BKN006/// BKN013/// 11/10 Q0990 RA SW (220°) 31.1mph 43.7mph 11°C 10°C
7/12/19 16:20 EGPU 071620Z AUTO 22025G38KT 190V250 5000 -RA BKN006/// 11/10 Q0991 -RA SW (220°) 28.8mph 43.7mph 11°C 10°C
7/12/19 15:50 EGPU 071550Z AUTO 22026G36KT 190V250 6000 BKN007/// BKN015/// 11/10 Q0992 SW (220°) 29.9mph 41.4mph 11°C 10°C
7/12/19 15:20 EGPU 071520Z 23026G41KT 7000 BKN006 11/10 Q0992 SW (230°) 29.9mph 47.2mph 11°C 10°C
7/12/19 14:50 EGPU 071450Z 22026KT 7000 BKN005 11/11 Q0993 SW (220°) 29.9mph 11°C 11°C
7/12/19 14:20 EGPU 071420Z 22025KT 5000 -RA SCT004 BKN005 11/11 Q0994 -RA SW (220°) 28.8mph 11°C 11°C
7/12/19 13:50 EGPU 071350Z 22024G35KT 3700 -RA BR BKN004 11/11 Q0994 -RA BR SW (220°) 27.6mph 40.3mph 11°C 11°C
7/12/19 13:20 EGPU 071320Z 22022KT 2800 RA BR BKN004 11/10 Q0995 RA BR SW (220°) 25.3mph 11°C 10°C
7/12/19 12:50 EGPU 071250Z 22022KT 3700 RA BR BKN004 SCT032 11/10 Q0997 RA BR SW (220°) 25.3mph 11°C 10°C
7/12/19 12:20 EGPU 071220Z 20019KT 3700 RA BR OVC004 10/10 Q0997 RA BR SSW (200°) 21.9mph 10°C 10°C
7/12/19 11:50 EGPU 071150Z 21020KT 170V240 4400 -RADZ BKN004 SCT018 10/10 Q0998 -RA -DZ SSW (210°) 23.0mph 10°C 10°C
7/12/19 11:20 EGPU 071120Z 20019KT 4400 -RA BKN003 SCT010 10/10 Q0999 -RA SSW (200°) 21.9mph 10°C 10°C
7/12/19 10:50 EGPU 071050Z 20017KT 2300 BR OVC003 10/10 Q0999 BR SSW (200°) 19.6mph 10°C 10°C
7/12/19 10:20 EGPU 071020Z 21015KT 2200 BR BKN004 BKN011 10/10 Q1000 BR SSW (210°) 17.3mph 10°C 10°C
7/12/19 09:50 EGPU 070950Z 21014KT 1800 -RADZ BKN003 SCT011 10/09 Q1001 -RA -DZ SSW (210°) 16.1mph 10°C 9°C
7/12/19 09:20 EGPU 070920Z 22013KT 9000 -DZ BKN006 10/09 Q1001 -DZ SW (220°) 15.0mph 10°C 9°C
7/12/19 08:50 EGPU 070850Z 23014KT 9000 -DZ BKN009 BKN025 09/09 Q1002 -DZ SW (230°) 16.1mph 9°C 9°C
7/12/19 08:20 EGPU 070820Z AUTO 23014KT 200V260 9999 SCT009/// SCT030/// 09/08 Q1002 SW (230°) 16.1mph 9°C 8°C
7/12/19 07:50 EGPU 070750Z AUTO 24010KT 9999 SCT011/// 09/08 Q1002 WSW (240°) 11.5mph 9°C 8°C
7/12/19 07:20 EGPU 070720Z AUTO 24012KT 210V270 9999 SCT011/// SCT018/// 09/08 Q1003 WSW (240°) 13.8mph 9°C 8°C
7/12/19 06:50 EGPU 070650Z AUTO 24010KT 9999 SCT009/// SCT028/// 08/08 Q1003 WSW (240°) 11.5mph 8°C 8°C
7/12/19 06:20 EGPU 070620Z AUTO 24009KT 210V270 9999 SCT010/// 08/07 Q1003 WSW (240°) 10.4mph 8°C 7°C
7/12/19 05:50 EGPU 070550Z AUTO 26010KT 230V290 9999 SCT013/// 09/08 Q1003 REDZ W (260°) 11.5mph 9°C 8°C
7/12/19 05:20 EGPU 070520Z AUTO 27008KT 9999 FEW008/// 08/07 Q1003 REDZ W (270°) 9.2mph 8°C 7°C
7/12/19 04:50 EGPU 070450Z AUTO 26012KT 230V290 9999 FEW011/// SCT037/// 08/07 Q1003 W (260°) 13.8mph 8°C 7°C
7/12/19 04:20 EGPU 070420Z AUTO 27012KT 9999 SCT024/// 08/07 Q1004 REDZ W (270°) 13.8mph 8°C 7°C
7/12/19 03:50 EGPU 070350Z AUTO 27011KT 9999 FEW006/// SCT039/// 08/07 Q1004 REDZ W (270°) 12.7mph 8°C 7°C
7/12/19 03:20 EGPU 070320Z AUTO 26010KT 5000 -DZ FEW013/// BKN020/// 08/07 Q1003 -DZ W (260°) 11.5mph 8°C 7°C
7/12/19 02:50 EGPU 070250Z AUTO 27009KT 9999 SCT012/// BKN041/// 08/07 Q1003 W (270°) 10.4mph 8°C 7°C
7/12/19 02:20 EGPU 070220Z AUTO 27009KT 9999 FEW010/// BKN041/// 08/07 Q1003 W (270°) 10.4mph 8°C 7°C
7/12/19 01:50 EGPU 070150Z AUTO 28010KT 250V310 9999 FEW011/// 08/07 Q1003 W (280°) 11.5mph 8°C 7°C
7/12/19 01:20 EGPU 070120Z AUTO 29008KT 9999 BKN010/// 08/07 Q1003 WNW (290°) 9.2mph 8°C 7°C